createdAt,value
2022-07-27T00:00:47.930Z,24.78
2022-07-27T00:03:14.815Z,24.69
2022-07-27T00:05:41.577Z,24.60
2022-07-27T00:08:08.555Z,24.58
2022-07-27T00:10:36.867Z,24.48
2022-07-27T00:13:05.122Z,24.59
2022-07-27T00:15:33.070Z,24.67
2022-07-27T00:18:01.068Z,24.72
2022-07-27T00:20:32.649Z,24.83
2022-07-27T00:22:59.660Z,24.85
2022-07-27T00:25:29.950Z,24.63
2022-07-27T00:27:59.149Z,24.60
2022-07-27T00:30:26.901Z,24.39
2022-07-27T00:32:53.748Z,24.39
2022-07-27T00:35:20.745Z,24.50
2022-07-27T00:37:47.441Z,24.44
2022-07-27T00:40:16.096Z,24.23
2022-07-27T00:42:42.958Z,24.26
2022-07-27T00:45:10.109Z,24.26
2022-07-27T00:47:36.838Z,24.29
2022-07-27T00:50:04.069Z,24.35
2022-07-27T00:52:31.274Z,24.24
2022-07-27T00:54:59.185Z,24.38
2022-07-27T00:57:27.896Z,24.29
2022-07-27T00:59:54.993Z,24.05
2022-07-27T01:02:23.050Z,24.02
2022-07-27T01:04:50.273Z,24.19
2022-07-27T01:07:22.099Z,23.95
2022-07-27T01:09:59.896Z,23.95
2022-07-27T01:12:31.610Z,24.07
2022-07-27T01:14:59.890Z,24.02
2022-07-27T01:17:30.717Z,24.01
2022-07-27T01:19:58.427Z,23.91
2022-07-27T01:22:25.163Z,23.90
2022-07-27T01:24:51.903Z,23.90
2022-07-27T01:27:18.616Z,23.92
2022-07-27T01:29:45.346Z,23.92
2022-07-27T01:32:12.177Z,23.92
2022-07-27T01:34:39.117Z,24.15
2022-07-27T01:37:05.960Z,24.33
2022-07-27T01:39:32.867Z,24.05
2022-07-27T01:42:00.329Z,23.89
2022-07-27T01:44:27.019Z,23.80
2022-07-27T01:46:53.808Z,23.60
2022-07-27T01:49:20.686Z,23.68
2022-07-27T01:51:47.499Z,23.79
2022-07-27T01:54:14.255Z,23.79
2022-07-27T01:56:41.500Z,23.73
2022-07-27T01:59:08.342Z,23.72
2022-07-27T02:01:43.403Z,23.55
2022-07-27T02:04:10.245Z,23.64
2022-07-27T02:06:36.963Z,23.63
2022-07-27T02:09:03.794Z,23.77
2022-07-27T02:11:49.100Z,23.83
2022-07-27T02:14:16.428Z,23.83
2022-07-27T02:16:43.348Z,23.78
2022-07-27T02:19:11.162Z,23.64
2022-07-27T02:21:38.836Z,23.68
2022-07-27T02:24:06.202Z,23.70
2022-07-27T02:26:33.008Z,23.47
2022-07-27T02:28:59.747Z,23.35
2022-07-27T02:31:26.611Z,23.46
2022-07-27T02:33:59.448Z,23.29
2022-07-27T02:36:29.049Z,23.31
2022-07-27T02:38:57.215Z,23.33
2022-07-27T02:41:24.775Z,23.43
2022-07-27T02:43:51.941Z,23.38
2022-07-27T02:46:18.767Z,23.30
2022-07-27T02:48:45.920Z,23.09
2022-07-27T02:51:14.843Z,23.00
2022-07-27T02:53:41.666Z,23.18
2022-07-27T02:56:08.474Z,22.98
2022-07-27T02:58:35.586Z,23.14
2022-07-27T03:01:02.398Z,23.25
2022-07-27T03:03:33.850Z,23.34
2022-07-27T03:06:08.824Z,23.41
2022-07-27T03:08:36.141Z,23.37
2022-07-27T03:11:03.035Z,22.99
2022-07-27T03:13:30.323Z,23.21
2022-07-27T03:15:57.547Z,23.10
2022-07-27T03:18:24.414Z,23.14
2022-07-27T03:20:51.260Z,23.19
2022-07-27T03:23:18.374Z,23.25
2022-07-27T03:25:45.351Z,23.08
2022-07-27T03:28:12.096Z,23.24
2022-07-27T03:30:38.862Z,23.02
2022-07-27T03:33:05.595Z,22.90
2022-07-27T03:35:32.886Z,22.84
2022-07-27T03:37:59.617Z,22.68
2022-07-27T03:40:29.223Z,22.60
2022-07-27T03:42:55.860Z,22.67
2022-07-27T03:45:22.601Z,22.68
2022-07-27T03:47:49.262Z,22.56
2022-07-27T03:50:15.972Z,22.56
2022-07-27T03:52:45.572Z,22.60
2022-07-27T03:55:12.850Z,22.82
2022-07-27T03:57:39.716Z,22.69
2022-07-27T04:00:08.542Z,22.58
2022-07-27T04:02:35.359Z,22.43
2022-07-27T04:05:02.100Z,22.40
2022-07-27T04:07:29.837Z,22.39
2022-07-27T04:09:56.717Z,22.60
2022-07-27T04:12:23.849Z,22.44
2022-07-27T04:14:51.335Z,22.38
2022-07-27T04:17:18.117Z,22.23
2022-07-27T04:20:05.776Z,22.11
2022-07-27T04:22:32.514Z,22.22
2022-07-27T04:24:59.267Z,22.26
2022-07-27T04:27:26.198Z,22.28
2022-07-27T04:29:53.341Z,22.19
2022-07-27T04:32:20.073Z,22.28
2022-07-27T04:34:46.940Z,22.12
2022-07-27T04:37:13.794Z,22.39
2022-07-27T04:39:40.635Z,22.16
2022-07-27T04:42:08.254Z,22.26
2022-07-27T04:44:34.960Z,22.07
2022-07-27T04:47:01.759Z,22.15
2022-07-27T04:49:28.455Z,21.98
2022-07-27T04:51:55.228Z,22.13
2022-07-27T04:54:21.923Z,22.02
2022-07-27T04:56:48.647Z,22.00
2022-07-27T04:59:15.627Z,22.15
2022-07-27T05:01:42.534Z,22.01
2022-07-27T05:04:09.420Z,21.97
2022-07-27T05:06:36.205Z,22.16
2022-07-27T05:09:03.419Z,22.29
2022-07-27T05:11:30.124Z,22.45
2022-07-27T05:13:57.055Z,22.21
2022-07-27T05:16:28.355Z,22.20
2022-07-27T05:18:56.044Z,22.29
2022-07-27T05:21:23.063Z,22.17
2022-07-27T05:23:49.813Z,22.00
2022-07-27T05:26:16.481Z,21.92
2022-07-27T05:28:43.637Z,22.03
2022-07-27T05:31:10.283Z,22.14
2022-07-27T05:33:36.967Z,22.14
2022-07-27T05:36:03.816Z,22.27
2022-07-27T05:38:39.250Z,22.19
2022-07-27T05:41:09.482Z,22.23
2022-07-27T05:43:36.815Z,22.20
2022-07-27T05:46:03.718Z,22.17
2022-07-27T05:48:30.661Z,22.24
2022-07-27T05:50:57.397Z,22.22
2022-07-27T05:53:24.065Z,22.02
2022-07-27T05:55:58.939Z,22.20
2022-07-27T05:58:30.167Z,22.18
2022-07-27T06:00:57.671Z,22.26
2022-07-27T06:03:24.679Z,22.34
2022-07-27T06:05:51.593Z,22.42
2022-07-27T06:08:18.405Z,22.41
2022-07-27T06:10:45.097Z,22.24
2022-07-27T06:13:12.051Z,22.35
2022-07-27T06:15:39.775Z,22.28
2022-07-27T06:18:08.984Z,22.23
2022-07-27T06:20:35.745Z,22.34
2022-07-27T06:23:07.822Z,22.37
2022-07-27T06:25:35.499Z,22.23
2022-07-27T06:28:06.328Z,22.31
2022-07-27T06:30:33.488Z,22.02
2022-07-27T06:33:00.968Z,22.11
2022-07-27T06:35:27.828Z,22.15
2022-07-27T06:37:54.804Z,22.07
2022-07-27T06:40:21.868Z,21.96
2022-07-27T06:42:48.907Z,21.91
2022-07-27T06:45:16.447Z,21.69
2022-07-27T06:47:49.223Z,21.93
2022-07-27T06:50:20.807Z,22.10
2022-07-27T06:52:48.538Z,22.16
2022-07-27T06:55:15.358Z,22.26
2022-07-27T06:57:42.909Z,22.31
2022-07-27T07:00:10.565Z,22.52
2022-07-27T07:02:37.523Z,22.31
2022-07-27T07:05:04.684Z,22.74
2022-07-27T07:07:31.695Z,22.94
2022-07-27T07:09:58.414Z,22.80
2022-07-27T07:12:25.676Z,22.61
2022-07-27T07:14:52.512Z,22.68
2022-07-27T07:17:19.746Z,22.73
2022-07-27T07:19:46.646Z,22.54
2022-07-27T07:22:13.482Z,22.66
2022-07-27T07:24:40.278Z,22.74
2022-07-27T07:27:07.044Z,22.79
2022-07-27T07:29:33.739Z,22.97
2022-07-27T07:32:00.473Z,23.25
2022-07-27T07:34:29.178Z,23.16
2022-07-27T07:36:55.933Z,23.07
2022-07-27T07:39:26.632Z,23.00
2022-07-27T07:41:57.641Z,23.39
2022-07-27T07:44:24.437Z,23.57
2022-07-27T07:46:51.364Z,23.14
2022-07-27T07:49:18.636Z,23.34
2022-07-27T07:52:05.061Z,23.81
2022-07-27T07:54:32.035Z,23.73
2022-07-27T07:56:58.837Z,23.51
2022-07-27T07:59:25.519Z,23.30
2022-07-27T08:01:52.308Z,23.62
2022-07-27T08:04:19.307Z,23.90
2022-07-27T08:06:46.124Z,23.67
2022-07-27T08:09:17.662Z,23.91
2022-07-27T08:11:44.879Z,24.28
2022-07-27T08:14:11.624Z,24.05
2022-07-27T08:16:38.861Z,23.97
2022-07-27T08:19:05.824Z,24.05
2022-07-27T08:21:36.239Z,24.07
2022-07-27T08:24:03.156Z,24.20
2022-07-27T08:26:29.896Z,24.28
2022-07-27T08:28:56.590Z,24.61
2022-07-27T08:31:50.979Z,24.65
2022-07-27T08:34:13.433Z,24.66
2022-07-27T08:36:40.403Z,24.65
2022-07-27T08:39:08.963Z,24.69
2022-07-27T08:41:42.076Z,24.56
2022-07-27T08:44:13.674Z,24.60
2022-07-27T08:46:44.447Z,24.55
2022-07-27T08:49:13.048Z,24.50
2022-07-27T08:51:44.015Z,24.38
2022-07-27T08:54:13.979Z,24.56
2022-07-27T08:56:41.037Z,24.36
2022-07-27T08:59:07.940Z,24.42
2022-07-27T09:01:39.069Z,24.27
2022-07-27T09:04:10.684Z,24.24
2022-07-27T09:06:45.909Z,24.00
2022-07-27T09:09:22.037Z,24.26
2022-07-27T09:12:05.457Z,24.35
2022-07-27T09:14:34.732Z,24.25
2022-07-27T09:20:18.464Z,24.55
2022-07-27T09:22:54.451Z,24.61
2022-07-27T09:28:30.229Z,24.43
2022-07-27T09:31:06.516Z,24.45
2022-07-27T09:33:41.629Z,24.51
2022-07-27T09:36:08.625Z,24.40
2022-07-27T09:38:35.344Z,24.37
2022-07-27T09:41:04.947Z,24.35
2022-07-27T09:46:36.467Z,24.21
2022-07-27T09:49:04.884Z,24.09
2022-07-27T09:51:58.973Z,24.23
2022-07-27T09:54:21.055Z,24.47
2022-07-27T09:56:58.647Z,24.48
2022-07-27T09:59:25.369Z,24.40
2022-07-27T10:01:56.216Z,24.54
2022-07-27T10:04:24.379Z,24.94
2022-07-27T10:07:02.676Z,24.72
2022-07-27T10:09:31.999Z,24.81
2022-07-27T10:11:58.776Z,24.77
2022-07-27T10:14:25.716Z,24.82
2022-07-27T10:16:53.578Z,25.00
2022-07-27T10:19:28.119Z,24.81
2022-07-27T10:21:55.134Z,24.92
2022-07-27T10:24:37.229Z,25.11
2022-07-27T10:27:20.788Z,25.12
2022-07-27T10:29:51.943Z,25.34
2022-07-27T10:32:31.199Z,25.24
2022-07-27T10:34:59.025Z,25.49
2022-07-27T10:37:26.945Z,25.53
2022-07-27T10:40:16.322Z,25.66
2022-07-27T10:42:47.828Z,25.31
2022-07-27T10:45:19.321Z,25.53
2022-07-27T10:47:48.977Z,25.29
2022-07-27T10:50:15.618Z,25.47
2022-07-27T10:53:06.628Z,25.38
2022-07-27T10:55:35.112Z,25.30
2022-07-27T10:58:11.025Z,25.53
2022-07-27T11:00:59.142Z,25.55
2022-07-27T11:03:34.529Z,25.60
2022-07-27T11:11:49.874Z,25.42
2022-07-27T11:14:19.320Z,25.30
2022-07-27T11:17:17.207Z,25.30
2022-07-27T11:19:51.326Z,25.38
2022-07-27T11:22:29.999Z,25.29
2022-07-27T11:25:02.654Z,25.28
2022-07-27T11:27:30.631Z,25.33
2022-07-27T11:29:58.082Z,25.38
2022-07-27T11:32:25.101Z,25.42
2022-07-27T11:34:52.012Z,25.49
2022-07-27T11:37:23.046Z,25.46
2022-07-27T11:40:04.018Z,25.37
2022-07-27T11:42:46.540Z,25.61
2022-07-27T11:45:28.459Z,25.61
2022-07-27T11:47:58.784Z,25.65
2022-07-27T11:50:25.496Z,25.54
2022-07-27T11:53:01.552Z,25.38
2022-07-27T11:55:28.700Z,25.61
2022-07-27T11:58:04.262Z,25.74
2022-07-27T12:00:41.722Z,25.67
2022-07-27T12:03:20.045Z,25.74
2022-07-27T12:05:51.257Z,25.82
2022-07-27T12:08:18.966Z,25.80
2022-07-27T12:11:01.090Z,25.63
2022-07-27T12:13:35.308Z,25.65
2022-07-27T12:16:02.470Z,25.71
2022-07-27T12:18:44.642Z,25.65
2022-07-27T12:21:18.802Z,25.65
2022-07-27T12:23:52.989Z,25.68
2022-07-27T12:26:25.282Z,25.70
2022-07-27T12:29:13.149Z,25.84
2022-07-27T12:31:49.076Z,25.89
2022-07-27T12:34:15.857Z,26.10
2022-07-27T12:36:43.164Z,26.09
2022-07-27T12:39:26.900Z,26.06
2022-07-27T12:42:05.855Z,26.07
2022-07-27T12:44:36.441Z,26.03
2022-07-27T12:47:27.759Z,26.10
2022-07-27T12:50:04.549Z,26.23
2022-07-27T12:52:32.462Z,25.97
2022-07-27T12:54:59.323Z,25.93
2022-07-27T12:57:53.475Z,26.03
2022-07-27T13:00:17.388Z,26.00
2022-07-27T13:02:45.610Z,25.74
2022-07-27T13:05:14.286Z,25.98
2022-07-27T13:07:43.910Z,26.01
2022-07-27T13:10:11.838Z,26.19
2022-07-27T13:12:39.292Z,26.12
2022-07-27T13:15:08.602Z,26.03
2022-07-27T13:17:36.129Z,26.14
2022-07-27T13:20:05.159Z,26.29
2022-07-27T13:22:32.777Z,26.37
2022-07-27T13:24:59.571Z,26.24
2022-07-27T13:27:26.362Z,26.49
2022-07-27T13:29:53.053Z,26.45
2022-07-27T13:32:20.034Z,26.47
2022-07-27T13:34:48.796Z,26.57
2022-07-27T13:37:16.327Z,26.51
2022-07-27T13:39:43.180Z,26.47
2022-07-27T13:42:10.136Z,26.58
2022-07-27T13:45:02.238Z,26.71
2022-07-27T13:47:24.012Z,26.82
2022-07-27T13:49:50.708Z,26.87
2022-07-27T13:52:17.435Z,27.07
2022-07-27T13:54:44.207Z,27.13
2022-07-27T13:57:14.091Z,27.24
2022-07-27T13:59:41.462Z,27.24
2022-07-27T14:02:10.458Z,27.32
2022-07-27T14:04:38.653Z,27.47
2022-07-27T14:07:07.840Z,27.55
2022-07-27T14:09:54.987Z,27.31
2022-07-27T14:12:21.870Z,27.55
2022-07-27T14:14:48.708Z,27.71
2022-07-27T14:17:15.464Z,27.89
2022-07-27T14:19:42.116Z,28.02
2022-07-27T14:22:12.001Z,28.09
2022-07-27T14:24:39.510Z,28.16
2022-07-27T14:27:06.914Z,28.36
2022-07-27T14:29:34.006Z,28.14
2022-07-27T14:32:01.459Z,27.69
2022-07-27T14:34:28.515Z,27.40
2022-07-27T14:36:55.394Z,27.27
2022-07-27T14:39:22.208Z,27.19
2022-07-27T14:41:48.886Z,27.67
2022-07-27T14:44:18.799Z,28.51
2022-07-27T14:46:46.588Z,28.07
2022-07-27T14:49:14.945Z,27.76
2022-07-27T14:51:41.747Z,28.35
2022-07-27T14:54:08.712Z,29.25
2022-07-27T14:56:36.462Z,29.09
2022-07-27T14:59:04.487Z,28.41
2022-07-27T15:01:31.787Z,27.99
2022-07-27T15:03:58.763Z,27.35
2022-07-27T15:06:25.618Z,27.32
2022-07-27T15:08:52.362Z,27.54
2022-07-27T15:11:19.444Z,29.62
2022-07-27T15:13:46.209Z,30.94
2022-07-27T15:16:13.257Z,30.19
2022-07-27T15:18:40.116Z,32.27
2022-07-27T15:21:12.982Z,34.77
2022-07-27T15:23:44.364Z,36.23
2022-07-27T15:26:12.893Z,36.79
2022-07-27T15:28:41.514Z,37.76
2022-07-27T15:31:08.570Z,38.08
2022-07-27T15:33:36.008Z,38.19
2022-07-27T15:36:03.237Z,38.80
2022-07-27T15:38:29.950Z,38.46
2022-07-27T15:40:56.567Z,37.98
2022-07-27T15:43:23.302Z,37.84
2022-07-27T15:45:50.995Z,37.30
2022-07-27T15:48:19.702Z,34.96
2022-07-27T15:50:51.475Z,32.71
2022-07-27T15:53:20.750Z,31.36
2022-07-27T15:55:48.503Z,30.56
2022-07-27T15:58:17.970Z,29.59
2022-07-27T16:00:50.920Z,28.95
2022-07-27T16:03:18.407Z,28.52
2022-07-27T16:05:49.346Z,28.51
2022-07-27T16:08:18.186Z,28.22
2022-07-27T16:10:47.169Z,27.90
2022-07-27T16:13:14.165Z,27.74
2022-07-27T16:16:01.104Z,27.73
2022-07-27T16:18:28.320Z,27.61
2022-07-27T16:20:55.415Z,27.57
2022-07-27T16:23:22.962Z,27.35
2022-07-27T16:26:06.874Z,27.49
2022-07-27T16:28:38.708Z,27.36
2022-07-27T16:31:07.907Z,27.38
2022-07-27T16:33:35.191Z,27.33
2022-07-27T16:36:02.324Z,27.21
2022-07-27T16:38:29.787Z,27.06
2022-07-27T16:40:56.514Z,27.05
2022-07-27T16:43:23.307Z,27.04
2022-07-27T16:46:03.173Z,26.96
2022-07-27T16:48:42.849Z,27.09
2022-07-27T16:51:12.585Z,26.74
2022-07-27T16:53:42.459Z,26.78
2022-07-27T16:56:10.764Z,26.82
2022-07-27T16:58:40.002Z,26.87
2022-07-27T17:01:07.769Z,26.76
2022-07-27T17:03:34.538Z,26.63
2022-07-27T17:06:06.059Z,26.60
2022-07-27T17:08:36.183Z,26.62
2022-07-27T17:11:06.214Z,26.60
2022-07-27T17:13:34.659Z,26.42
2022-07-27T17:16:04.099Z,26.46
2022-07-27T17:18:37.112Z,26.41
2022-07-27T17:21:09.235Z,26.32
2022-07-27T17:23:38.314Z,26.42
2022-07-27T17:26:07.263Z,26.24
2022-07-27T17:28:38.794Z,26.22
2022-07-27T17:31:08.126Z,26.14
2022-07-27T17:33:35.484Z,26.11
2022-07-27T17:36:04.730Z,26.30
2022-07-27T17:38:31.533Z,26.31
2022-07-27T17:40:58.472Z,26.20
2022-07-27T17:43:25.195Z,26.21
2022-07-27T17:45:52.005Z,26.07
2022-07-27T17:48:18.818Z,25.95
2022-07-27T17:50:45.535Z,25.99
2022-07-27T17:53:12.226Z,25.85
2022-07-27T17:55:39.901Z,25.70
2022-07-27T17:58:06.642Z,25.75
2022-07-27T18:00:33.524Z,25.89
2022-07-27T18:03:00.789Z,25.86
2022-07-27T18:05:27.735Z,25.87
2022-07-27T18:07:54.968Z,25.97
2022-07-27T18:10:21.791Z,25.91
2022-07-27T18:12:48.654Z,25.96
2022-07-27T18:15:35.473Z,25.83
2022-07-27T18:18:02.453Z,25.75
2022-07-27T18:20:29.175Z,25.51
2022-07-27T18:22:56.001Z,25.50
2022-07-27T18:25:22.884Z,25.54
2022-07-27T18:27:51.616Z,25.66
2022-07-27T18:30:18.866Z,25.50
2022-07-27T18:32:45.696Z,25.45
2022-07-27T18:35:12.890Z,25.35
2022-07-27T18:37:40.017Z,25.31
2022-07-27T18:40:09.008Z,25.34
2022-07-27T18:42:38.284Z,25.30
2022-07-27T18:45:09.882Z,25.40
2022-07-27T18:47:49.413Z,25.37
2022-07-27T18:50:16.688Z,25.31
2022-07-27T18:52:43.493Z,25.30
2022-07-27T18:55:10.596Z,25.20
2022-07-27T18:57:38.018Z,25.14
2022-07-27T19:00:05.891Z,25.12
2022-07-27T19:02:38.785Z,25.12
2022-07-27T19:05:07.671Z,25.21
2022-07-27T19:07:37.232Z,25.27
2022-07-27T19:10:07.618Z,25.20
2022-07-27T19:12:34.647Z,25.23
2022-07-27T19:15:01.659Z,25.11
2022-07-27T19:17:30.343Z,25.26
2022-07-27T19:20:01.463Z,25.01
2022-07-27T19:22:30.044Z,25.00
2022-07-27T19:24:56.854Z,24.92
2022-07-27T19:27:23.984Z,25.04
2022-07-27T19:29:52.887Z,25.03
2022-07-27T19:32:19.720Z,25.01
2022-07-27T19:34:47.638Z,24.91
2022-07-27T19:37:15.321Z,24.83
2022-07-27T19:40:02.287Z,24.89
2022-07-27T19:42:30.582Z,24.83
2022-07-27T19:44:57.401Z,24.88
2022-07-27T19:47:25.511Z,24.65
2022-07-27T19:49:52.400Z,24.70
2022-07-27T19:52:20.914Z,24.53
2022-07-27T19:54:47.612Z,24.58
2022-07-27T19:57:14.699Z,24.48
2022-07-27T19:59:55.448Z,24.45
2022-07-27T20:02:24.986Z,24.56
2022-07-27T20:04:52.432Z,24.62
2022-07-27T20:07:19.346Z,24.55
2022-07-27T20:09:46.354Z,24.57
2022-07-27T20:12:13.090Z,24.52
2022-07-27T20:14:39.852Z,24.46
2022-07-27T20:17:07.026Z,24.49
2022-07-27T20:19:33.821Z,24.47
2022-07-27T20:22:01.975Z,24.35
2022-07-27T20:24:29.367Z,24.18
2022-07-27T20:26:57.423Z,24.30
2022-07-27T20:29:24.549Z,24.19
2022-07-27T20:31:52.159Z,24.26
2022-07-27T20:34:23.506Z,24.18
2022-07-27T20:36:50.397Z,24.19
2022-07-27T20:39:17.846Z,24.19
2022-07-27T20:41:44.808Z,24.28
2022-07-27T20:44:11.495Z,24.11
2022-07-27T20:46:38.642Z,24.03
2022-07-27T20:49:06.503Z,24.07
2022-07-27T20:51:33.446Z,24.03
2022-07-27T20:54:00.849Z,24.00
2022-07-27T20:56:27.597Z,24.01
2022-07-27T20:58:54.758Z,24.00
2022-07-27T21:01:26.081Z,23.96
2022-07-27T21:03:52.800Z,24.04
2022-07-27T21:06:19.634Z,24.01
2022-07-27T21:08:46.970Z,23.81
2022-07-27T21:11:14.103Z,23.54
2022-07-27T21:13:41.372Z,23.78
2022-07-27T21:16:08.431Z,23.71
2022-07-27T21:18:35.668Z,23.81
2022-07-27T21:21:02.731Z,23.74
2022-07-27T21:23:48.261Z,23.79
2022-07-27T21:26:15.578Z,23.81
2022-07-27T21:28:45.706Z,23.75
2022-07-27T21:31:12.394Z,23.85
2022-07-27T21:33:40.263Z,23.77
2022-07-27T21:36:07.726Z,23.61
2022-07-27T21:38:34.612Z,23.68
2022-07-27T21:41:01.491Z,23.38
2022-07-27T21:43:28.159Z,23.26
2022-07-27T21:45:54.941Z,23.26
2022-07-27T21:48:21.651Z,23.15
2022-07-27T21:50:48.512Z,23.35
2022-07-27T21:53:15.195Z,23.36
2022-07-27T21:55:42.054Z,23.27
2022-07-27T21:58:12.142Z,23.35
2022-07-27T22:00:39.131Z,23.34
2022-07-27T22:03:06.381Z,23.32
2022-07-27T22:05:33.380Z,23.40
2022-07-27T22:08:00.255Z,23.34
2022-07-27T22:10:28.369Z,23.17
2022-07-27T22:12:55.369Z,23.14
2022-07-27T22:15:22.105Z,23.21
2022-07-27T22:17:51.024Z,23.27
2022-07-27T22:20:19.028Z,23.31
2022-07-27T22:22:46.249Z,23.13
2022-07-27T22:25:13.175Z,23.19
2022-07-27T22:27:39.982Z,23.15
2022-07-27T22:30:08.177Z,23.11
2022-07-27T22:32:35.627Z,23.17
2022-07-27T22:35:02.824Z,23.09
2022-07-27T22:37:30.548Z,22.93
2022-07-27T22:39:57.183Z,23.16
2022-07-27T22:42:23.842Z,22.99
2022-07-27T22:44:50.631Z,23.13
2022-07-27T22:47:17.499Z,23.09
2022-07-27T22:49:45.121Z,22.96
2022-07-27T22:52:12.273Z,23.10
2022-07-27T22:54:39.050Z,23.10
2022-07-27T22:57:06.985Z,23.14
2022-07-27T22:59:34.933Z,23.18
2022-07-27T23:02:02.290Z,23.21
2022-07-27T23:04:29.030Z,23.04
2022-07-27T23:06:56.171Z,22.97
2022-07-27T23:09:23.283Z,22.98
2022-07-27T23:11:50.566Z,23.09
2022-07-27T23:14:17.742Z,23.08
2022-07-27T23:16:44.944Z,23.13
2022-07-27T23:19:11.998Z,23.19
2022-07-27T23:21:39.632Z,23.16
2022-07-27T23:24:14.255Z,23.03
2022-07-27T23:26:41.955Z,22.94
2022-07-27T23:29:08.895Z,22.83
2022-07-27T23:31:35.726Z,22.63
2022-07-27T23:34:02.478Z,22.46
2022-07-27T23:36:29.264Z,22.57
2022-07-27T23:38:56.037Z,22.59
2022-07-27T23:41:22.663Z,22.69
2022-07-27T23:43:49.396Z,22.77
2022-07-27T23:46:16.169Z,22.86
2022-07-27T23:48:42.992Z,22.69
2022-07-27T23:51:16.141Z,22.67
2022-07-27T23:53:42.844Z,22.65
2022-07-27T23:56:09.496Z,22.63
2022-07-27T23:58:36.177Z,22.62
